CDT,Max TemperatureF,Mean TemperatureF,Min TemperatureF,Max Dew PointF,MeanDew PointF,Min DewpointF,Max Humidity, Mean Humidity, Min Humidity, Max Sea Level PressureIn, Mean Sea Level PressureIn, Min Sea Level PressureIn, Max VisibilityMiles, Mean VisibilityMiles, Min VisibilityMiles, Max Wind SpeedMPH, Mean Wind SpeedMPH, Max Gust SpeedMPH,PrecipitationIn, CloudCover, Events, WindDirDegrees
2012-10-1,75,62,50,54,49,45,94,67,34,30.02,29.95,29.91,10,10,5,29,2,33,0.01,0,Rain,344
2012-10-2,71,58,46,46,40,28,93,54,20,30.07,30.01,29.93,10,10,10,0,0,,0.00,1,,-1
2012-10-3,80,64,48,52,43,39,76,49,24,29.97,29.93,29.87,10,10,10,21,3,26,0.00,0,,174
2012-10-4,64,60,55,52,43,36,88,58,42,30.22,30.12,29.95,10,10,10,26,5,32,0.00,5,,8
2012-10-5,62,54,46,37,35,28,62,48,32,30.26,30.18,30.13,10,10,10,18,6,24,0.00,4,,33
2012-10-6,48,44,37,32,30,25,81,56,43,30.36,30.29,30.24,10,10,10,17,4,23,0.00,6,,35
2012-10-7,46,39,32,34,31,25,93,73,43,30.36,30.30,30.22,10,10,10,6,0,,0.00,1,Rain,63
2012-10-8,62,46,30,36,31,28,93,63,27,30.22,30.11,29.98,10,10,7,20,3,24,0.00,0,,184
2012-10-9,77,60,44,46,40,32,87,55,22,30.09,29.92,29.84,10,10,7,21,4,30,0.00,0,,163
2012-10-10,64,53,42,39,34,23,70,46,23,30.28,30.18,30.11,10,10,10,18,9,25,0.00,4,,96
2012-10-11,80,68,57,63,54,41,94,67,48,30.12,30.07,30.00,10,9,3,23,10,29,0.00,5,,185
2012-10-12,71,63,55,64,60,52,94,85,72,30.17,30.10,30.02,10,8,2,14,7,,0.00,6,,88
2012-10-13,86,74,60,66,51,18,83,55,10,29.99,29.84,29.68,10,10,5,25,17,36,0.02,3,Rain,200
2012-10-14,78,66,53,43,36,28,67,37,16,30.14,30.04,29.83,10,10,3,20,11,25,0.00,0,,326
2012-10-15,86,65,44,45,37,30,76,43,13,30.14,30.01,29.90,10,10,2,20,5,26,0.00,0,,198
2012-10-16,82,68,55,54,46,43,72,49,25,29.90,29.70,29.52,10,10,4,20,11,24,0.00,0,,166
2012-10-17,75,62,50,55,34,14,82,38,12,29.90,29.64,29.42,10,10,10,29,14,37,0.00,0,,336
2012-10-18,69,52,35,28,19,7,70,35,9,30.06,29.98,29.90,10,10,7,22,7,29,0.00,0,,297
2012-10-19,77,59,41,30,17,3,49,25,8,30.04,29.95,29.84,10,10,7,21,8,26,0.00,0,,280
2012-10-20,78,64,50,54,40,32,72,44,28,29.84,29.76,29.69,10,10,10,14,8,20,0.00,0,,150
2012-10-21,95,77,59,61,48,19,94,49,6,29.75,29.70,29.65,10,10,7,28,12,36,0.00,0,,177
2012-10-22,82,74,64,61,55,41,88,54,24,29.89,29.83,29.76,10,10,5,30,15,44,0.00,0,,177
2012-10-23,89,74,60,63,57,45,94,59,21,29.85,29.81,29.75,10,10,10,28,15,36,0.00,0,,181
2012-10-24,80,71,62,63,61,57,94,73,51,29.85,29.79,29.70,10,9,3,28,16,38,0.00,2,,168
2012-10-25,69,53,37,57,40,30,75,58,38,30.26,29.99,29.68,10,10,10,30,19,38,0.00,1,,1
2012-10-26,50,41,32,30,25,18,87,58,28,30.47,30.37,30.25,10,10,10,23,13,29,0.00,2,,12
2012-10-27,51,37,23,25,21,19,86,54,28,30.38,30.30,30.19,10,10,10,9,5,,0.00,0,,59
2012-10-28,60,43,26,28,22,19,80,47,20,30.30,30.24,30.17,10,10,5,12,3,17,0.00,0,,164
2012-10-29,68,50,32,30,27,21,81,49,18,30.26,30.18,30.08,10,10,10,15,8,25,0.00,0,,174
2012-10-30,80,58,35,34,30,23,81,41,12,30.09,29.99,29.87,10,10,4,16,5,20,0.00,0,,216
2012-10-31,75,58,41,37,34,32,76,47,21,30.10,30.03,29.98,10,10,10,10,5,,0.00,0,,332